Marble, MN (55764)

7:27 AM CST on December 26, 2014 (GMT -0600)
Calumet, MN | Change Station
CLOSE
Current Station
Personal Weather Station
Location: Bovey, MN
Elevation: 1381 ft
Nearby Weather Stations

Elev 1381 ft 47.32 °N, 93.28 °W | Updated 12 minutes ago

Overcast
Overcast
25.2 °F
Feels Like 25 °F
N
1.7
Wind Variable Wind from West

Today
High -- | Low -- °F
--% Chance of Precip.
Yesterday
High -- | Low -- °F
Precip. -- in
7:59 AM 4:28 PM
Waxing Crescent, 26% visible
Pressure 29.99 in
Visibility 10.0 miles
Clouds Few 800 ft
Overcast 2200 ft
Windchill 25 °F
Dew Point 24 °F
Humidity 95%
Rainfall 0.00 in
Snow Depth Not available.
UV 0 out of 12
Pollen .10 out of 12
Air Quality Not available.
Flu Activity Not available.
METAR KGPZ 261315Z AUTO 34005KT 10SM FEW008 OVC022 M04/M06 A2999 RMK AO1

More Conditions Fewer Conditions

Pressure 29.99 in
Visibility 10.0 miles
Clouds Few 800 ft
Overcast 2200 ft
Windchill 25 °F
Dew Point 24 °F
Humidity 95%
Rainfall 0.00 in
Snow Depth Not available.
UV 0 out of 12
Pollen .10 out of 12
Air Quality Not available.
Flu Activity Not available.
METAR KGPZ 261315Z AUTO 34005KT 10SM FEW008 OVC022 M04/M06 A2999 RMK AO1

More Conditions Fewer Conditions

10-Day Weather Forecast

Almanac

Astronomy

Dec. 26, 2014 Rise Set
Actual Time
Civil Twilight
Nautical Twilight
Astronomical Twilight
Moon
Length of Visible Light
Length of Day
Tomorrow will be .
, % of the Moon is Illuminated

Today's Extremes

State Highs State Lows

Community

WunderPhotos

Upload Photos

1,780,592 photos uploaded!

WunderBlogs® & News

Nearby

Air Quality

  Air Quality AQ Index Pollutant
Not available.

Snow Depth

Station Depth Elevation

Earthquake Activity

City Distance Mag. Time & Date
Minimum magnitude displayed is 2.5.

Coastal Water Temperatures

Place Temperature

Nearby Weather Stations